sensor_id;sensor_type;location;lat;lon;timestamp;P1;durP1;ratioP1;P2;durP2;ratioP2
71196;SDS011;58918;51.652;4.864;2023-02-28T00:00:34;3.75;;;1.13;;
71196;SDS011;58918;51.652;4.864;2023-02-28T00:03:02;3.88;;;1.40;;
71196;SDS011;58918;51.652;4.864;2023-02-28T00:05:29;3.72;;;1.25;;
71196;SDS011;58918;51.652;4.864;2023-02-28T00:07:57;3.80;;;1.20;;
71196;SDS011;58918;51.652;4.864;2023-02-28T00:10:26;4.85;;;1.67;;
71196;SDS011;58918;51.652;4.864;2023-02-28T00:12:54;4.07;;;1.48;;
71196;SDS011;58918;51.652;4.864;2023-02-28T00:15:23;4.28;;;1.30;;
71196;SDS011;58918;51.652;4.864;2023-02-28T00:17:50;3.92;;;1.30;;
71196;SDS011;58918;51.652;4.864;2023-02-28T00:20:18;4.72;;;1.25;;
71196;SDS011;58918;51.652;4.864;2023-02-28T00:22:46;3.80;;;1.58;;
71196;SDS011;58918;51.652;4.864;2023-02-28T00:25:16;4.35;;;1.33;;
71196;SDS011;58918;51.652;4.864;2023-02-28T00:27:43;4.22;;;1.38;;
71196;SDS011;58918;51.652;4.864;2023-02-28T00:30:12;3.42;;;1.20;;
71196;SDS011;58918;51.652;4.864;2023-02-28T00:32:39;4.00;;;1.17;;
71196;SDS011;58918;51.652;4.864;2023-02-28T00:35:07;3.65;;;1.45;;
71196;SDS011;58918;51.652;4.864;2023-02-28T00:37:34;2.93;;;1.10;;
71196;SDS011;58918;51.652;4.864;2023-02-28T00:40:02;4.15;;;1.45;;
71196;SDS011;58918;51.652;4.864;2023-02-28T00:42:32;4.10;;;1.40;;
71196;SDS011;58918;51.652;4.864;2023-02-28T00:44:59;5.63;;;1.40;;
71196;SDS011;58918;51.652;4.864;2023-02-28T00:47:26;3.25;;;1.15;;
71196;SDS011;58918;51.652;4.864;2023-02-28T00:49:54;4.00;;;1.27;;
71196;SDS011;58918;51.652;4.864;2023-02-28T00:52:21;4.40;;;1.35;;
71196;SDS011;58918;51.652;4.864;2023-02-28T00:54:48;4.55;;;1.58;;
71196;SDS011;58918;51.652;4.864;2023-02-28T00:57:15;2.85;;;1.08;;
71196;SDS011;58918;51.652;4.864;2023-02-28T00:59:42;4.28;;;1.13;;
71196;SDS011;58918;51.652;4.864;2023-02-28T01:02:09;3.13;;;1.00;;
71196;SDS011;58918;51.652;4.864;2023-02-28T01:04:37;3.60;;;1.25;;
71196;SDS011;58918;51.652;4.864;2023-02-28T01:07:04;2.92;;;1.40;;
71196;SDS011;58918;51.652;4.864;2023-02-28T01:09:31;3.38;;;0.95;;
71196;SDS011;58918;51.652;4.864;2023-02-28T01:11:58;3.70;;;1.05;;
71196;SDS011;58918;51.652;4.864;2023-02-28T01:14:25;3.95;;;1.10;;
71196;SDS011;58918;51.652;4.864;2023-02-28T01:16:53;3.38;;;1.10;;
71196;SDS011;58918;51.652;4.864;2023-02-28T01:19:20;3.65;;;1.20;;
71196;SDS011;58918;51.652;4.864;2023-02-28T01:21:47;3.83;;;1.20;;
71196;SDS011;58918;51.652;4.864;2023-02-28T01:24:14;3.00;;;1.10;;
71196;SDS011;58918;51.652;4.864;2023-02-28T01:26:41;6.05;;;1.02;;
71196;SDS011;58918;51.652;4.864;2023-02-28T01:29:08;3.97;;;1.20;;
71196;SDS011;58918;51.652;4.864;2023-02-28T01:31:35;3.20;;;1.10;;
71196;SDS011;58918;51.652;4.864;2023-02-28T01:34:03;2.95;;;0.93;;
71196;SDS011;58918;51.652;4.864;2023-02-28T01:36:30;2.60;;;1.10;;
71196;SDS011;58918;51.652;4.864;2023-02-28T01:38:57;4.20;;;1.20;;
71196;SDS011;58918;51.652;4.864;2023-02-28T01:41:26;3.50;;;1.08;;
71196;SDS011;58918;51.652;4.864;2023-02-28T01:43:58;4.15;;;1.30;;
71196;SDS011;58918;51.652;4.864;2023-02-28T01:46:33;3.45;;;1.17;;
71196;SDS011;58918;51.652;4.864;2023-02-28T01:49:05;3.55;;;1.10;;
71196;SDS011;58918;51.652;4.864;2023-02-28T01:51:44;3.00;;;1.00;;
71196;SDS011;58918;51.652;4.864;2023-02-28T01:54:18;3.40;;;1.00;;
71196;SDS011;58918;51.652;4.864;2023-02-28T01:56:47;3.20;;;1.10;;
71196;SDS011;58918;51.652;4.864;2023-02-28T01:59:20;3.33;;;0.90;;
71196;SDS011;58918;51.652;4.864;2023-02-28T02:01:48;4.45;;;1.00;;
71196;SDS011;58918;51.652;4.864;2023-02-28T02:04:16;3.15;;;1.00;;
71196;SDS011;58918;51.652;4.864;2023-02-28T02:06:44;2.55;;;0.98;;
71196;SDS011;58918;51.652;4.864;2023-02-28T02:11:40;3.13;;;1.00;;
71196;SDS011;58918;51.652;4.864;2023-02-28T02:17:00;3.75;;;1.10;;
71196;SDS011;58918;51.652;4.864;2023-02-28T02:27:17;3.42;;;0.82;;
71196;SDS011;58918;51.652;4.864;2023-02-28T02:35:12;2.53;;;0.80;;
71196;SDS011;58918;51.652;4.864;2023-02-28T02:37:42;3.08;;;1.00;;
71196;SDS011;58918;51.652;4.864;2023-02-28T02:40:14;2.83;;;0.90;;
71196;SDS011;58918;51.652;4.864;2023-02-28T02:42:53;2.97;;;0.93;;
71196;SDS011;58918;51.652;4.864;2023-02-28T02:48:05;2.90;;;1.00;;
71196;SDS011;58918;51.652;4.864;2023-02-28T02:50:34;3.75;;;1.00;;
71196;SDS011;58918;51.652;4.864;2023-02-28T02:53:02;3.17;;;1.00;;
71196;SDS011;58918;51.652;4.864;2023-02-28T02:55:31;3.20;;;1.20;;
71196;SDS011;58918;51.652;4.864;2023-02-28T02:58:04;3.10;;;0.80;;
71196;SDS011;58918;51.652;4.864;2023-02-28T03:00:37;2.88;;;0.90;;
71196;SDS011;58918;51.652;4.864;2023-02-28T03:03:05;2.22;;;0.80;;
71196;SDS011;58918;51.652;4.864;2023-02-28T03:05:34;3.47;;;0.93;;
71196;SDS011;58918;51.652;4.864;2023-02-28T03:08:04;2.80;;;1.00;;
71196;SDS011;58918;51.652;4.864;2023-02-28T03:10:44;2.95;;;0.90;;
71196;SDS011;58918;51.652;4.864;2023-02-28T03:18:41;2.63;;;0.80;;
71196;SDS011;58918;51.652;4.864;2023-02-28T03:23:39;3.67;;;1.20;;
71196;SDS011;58918;51.652;4.864;2023-02-28T03:26:14;2.88;;;0.98;;
71196;SDS011;58918;51.652;4.864;2023-02-28T03:28:48;5.80;;;1.17;;
71196;SDS011;58918;51.652;4.864;2023-02-28T03:31:20;2.80;;;0.85;;
71196;SDS011;58918;51.652;4.864;2023-02-28T03:33:51;4.20;;;1.10;;
71196;SDS011;58918;51.652;4.864;2023-02-28T03:36:22;4.82;;;0.82;;
71196;SDS011;58918;51.652;4.864;2023-02-28T03:39:07;4.78;;;1.50;;
71196;SDS011;58918;51.652;4.864;2023-02-28T03:41:42;2.75;;;0.80;;
71196;SDS011;58918;51.652;4.864;2023-02-28T03:44:16;2.60;;;0.88;;
71196;SDS011;58918;51.652;4.864;2023-02-28T03:46:46;5.18;;;0.90;;
71196;SDS011;58918;51.652;4.864;2023-02-28T03:49:17;2.47;;;0.90;;
71196;SDS011;58918;51.652;4.864;2023-02-28T03:51:45;4.53;;;1.00;;
71196;SDS011;58918;51.652;4.864;2023-02-28T03:54:15;2.15;;;0.82;;
71196;SDS011;58918;51.652;4.864;2023-02-28T03:57:31;2.60;;;0.98;;
71196;SDS011;58918;51.652;4.864;2023-02-28T03:59:40;3.08;;;1.00;;
71196;SDS011;58918;51.652;4.864;2023-02-28T04:02:08;3.80;;;1.10;;
71196;SDS011;58918;51.652;4.864;2023-02-28T04:04:36;2.55;;;0.90;;
71196;SDS011;58918;51.652;4.864;2023-02-28T04:07:04;3.30;;;1.08;;
71196;SDS011;58918;51.652;4.864;2023-02-28T04:09:31;3.47;;;0.95;;
71196;SDS011;58918;51.652;4.864;2023-02-28T04:11:59;2.65;;;1.08;;
71196;SDS011;58918;51.652;4.864;2023-02-28T04:14:26;3.15;;;0.80;;
71196;SDS011;58918;51.652;4.864;2023-02-28T04:16:53;2.60;;;0.90;;
71196;SDS011;58918;51.652;4.864;2023-02-28T04:19:20;2.88;;;0.90;;
71196;SDS011;58918;51.652;4.864;2023-02-28T04:21:49;3.60;;;1.27;;
71196;SDS011;58918;51.652;4.864;2023-02-28T04:24:20;2.63;;;0.75;;
71196;SDS011;58918;51.652;4.864;2023-02-28T04:26:49;3.35;;;1.05;;
71196;SDS011;58918;51.652;4.864;2023-02-28T04:29:22;2.28;;;0.70;;
71196;SDS011;58918;51.652;4.864;2023-02-28T04:31:50;2.35;;;0.90;;
71196;SDS011;58918;51.652;4.864;2023-02-28T04:34:20;2.35;;;0.70;;
71196;SDS011;58918;51.652;4.864;2023-02-28T04:36:47;2.92;;;0.90;;
71196;SDS011;58918;51.652;4.864;2023-02-28T04:39:37;2.92;;;1.00;;
71196;SDS011;58918;51.652;4.864;2023-02-28T04:42:05;2.08;;;0.75;;
71196;SDS011;58918;51.652;4.864;2023-02-28T04:44:32;3.47;;;0.85;;
71196;SDS011;58918;51.652;4.864;2023-02-28T04:46:59;5.00;;;0.82;;
71196;SDS011;58918;51.652;4.864;2023-02-28T04:49:26;2.65;;;0.88;;
71196;SDS011;58918;51.652;4.864;2023-02-28T04:51:54;5.78;;;1.40;;
71196;SDS011;58918;51.652;4.864;2023-02-28T04:54:21;5.57;;;1.00;;
71196;SDS011;58918;51.652;4.864;2023-02-28T04:56:49;6.50;;;1.23;;
71196;SDS011;58918;51.652;4.864;2023-02-28T04:59:16;6.00;;;1.08;;
71196;SDS011;58918;51.652;4.864;2023-02-28T05:01:47;3.03;;;0.90;;
71196;SDS011;58918;51.652;4.864;2023-02-28T05:04:15;4.32;;;1.05;;
71196;SDS011;58918;51.652;4.864;2023-02-28T05:06:43;3.92;;;0.70;;
71196;SDS011;58918;51.652;4.864;2023-02-28T05:09:10;4.38;;;0.90;;
71196;SDS011;58918;51.652;4.864;2023-02-28T05:11:38;4.80;;;1.13;;
71196;SDS011;58918;51.652;4.864;2023-02-28T05:14:06;3.47;;;0.93;;
71196;SDS011;58918;51.652;4.864;2023-02-28T05:16:34;3.38;;;0.95;;
71196;SDS011;58918;51.652;4.864;2023-02-28T05:19:01;5.28;;;0.85;;
71196;SDS011;58918;51.652;4.864;2023-02-28T05:21:32;4.85;;;0.80;;
71196;SDS011;58918;51.652;4.864;2023-02-28T05:24:00;5.45;;;1.00;;
71196;SDS011;58918;51.652;4.864;2023-02-28T05:26:28;6.28;;;1.10;;
71196;SDS011;58918;51.652;4.864;2023-02-28T05:28:56;5.88;;;1.00;;
71196;SDS011;58918;51.652;4.864;2023-02-28T05:31:23;3.47;;;1.10;;
71196;SDS011;58918;51.652;4.864;2023-02-28T05:33:50;7.75;;;1.25;;
71196;SDS011;58918;51.652;4.864;2023-02-28T05:36:18;6.38;;;0.93;;
71196;SDS011;58918;51.652;4.864;2023-02-28T05:38:46;5.05;;;1.00;;
71196;SDS011;58918;51.652;4.864;2023-02-28T05:41:14;4.60;;;1.08;;
71196;SDS011;58918;51.652;4.864;2023-02-28T05:43:41;3.55;;;1.10;;
71196;SDS011;58918;51.652;4.864;2023-02-28T05:46:09;3.92;;;1.02;;
71196;SDS011;58918;51.652;4.864;2023-02-28T05:48:37;4.05;;;1.10;;
71196;SDS011;58918;51.652;4.864;2023-02-28T05:51:05;7.07;;;1.50;;
71196;SDS011;58918;51.652;4.864;2023-02-28T05:53:33;4.68;;;1.30;;
71196;SDS011;58918;51.652;4.864;2023-02-28T05:56:00;4.47;;;0.90;;
71196;SDS011;58918;51.652;4.864;2023-02-28T05:58:27;4.22;;;1.10;;
71196;SDS011;58918;51.652;4.864;2023-02-28T06:00:57;2.75;;;0.90;;
71196;SDS011;58918;51.652;4.864;2023-02-28T06:03:24;3.08;;;0.93;;
71196;SDS011;58918;51.652;4.864;2023-02-28T06:05:52;2.78;;;1.17;;
71196;SDS011;58918;51.652;4.864;2023-02-28T06:08:19;2.58;;;1.00;;
71196;SDS011;58918;51.652;4.864;2023-02-28T06:10:46;4.43;;;1.10;;
71196;SDS011;58918;51.652;4.864;2023-02-28T06:13:13;3.88;;;0.93;;
71196;SDS011;58918;51.652;4.864;2023-02-28T06:15:41;2.83;;;0.73;;
71196;SDS011;58918;51.652;4.864;2023-02-28T06:18:08;3.05;;;1.00;;
71196;SDS011;58918;51.652;4.864;2023-02-28T06:20:35;4.25;;;0.95;;
71196;SDS011;58918;51.652;4.864;2023-02-28T06:23:02;2.60;;;0.80;;
71196;SDS011;58918;51.652;4.864;2023-02-28T06:25:30;3.90;;;1.00;;
71196;SDS011;58918;51.652;4.864;2023-02-28T06:27:57;3.33;;;0.90;;
71196;SDS011;58918;51.652;4.864;2023-02-28T06:30:24;3.00;;;0.88;;
71196;SDS011;58918;51.652;4.864;2023-02-28T06:32:53;3.35;;;1.27;;
71196;SDS011;58918;51.652;4.864;2023-02-28T06:35:22;4.78;;;1.10;;
71196;SDS011;58918;51.652;4.864;2023-02-28T06:37:49;3.85;;;1.10;;
71196;SDS011;58918;51.652;4.864;2023-02-28T06:40:16;3.17;;;1.05;;
71196;SDS011;58918;51.652;4.864;2023-02-28T06:42:43;4.45;;;0.90;;
71196;SDS011;58918;51.652;4.864;2023-02-28T06:45:11;3.53;;;0.90;;
71196;SDS011;58918;51.652;4.864;2023-02-28T06:47:39;4.45;;;1.10;;
71196;SDS011;58918;51.652;4.864;2023-02-28T06:50:08;3.05;;;0.93;;
71196;SDS011;58918;51.652;4.864;2023-02-28T06:52:36;3.00;;;0.82;;
71196;SDS011;58918;51.652;4.864;2023-02-28T06:55:04;3.08;;;0.80;;
71196;SDS011;58918;51.652;4.864;2023-02-28T06:57:32;3.63;;;1.00;;
71196;SDS011;58918;51.652;4.864;2023-02-28T07:00:02;3.35;;;1.13;;
71196;SDS011;58918;51.652;4.864;2023-02-28T07:02:30;2.92;;;1.08;;
71196;SDS011;58918;51.652;4.864;2023-02-28T07:04:57;3.00;;;0.93;;
71196;SDS011;58918;51.652;4.864;2023-02-28T07:07:25;3.80;;;1.02;;
71196;SDS011;58918;51.652;4.864;2023-02-28T07:09:52;2.58;;;0.70;;
71196;SDS011;58918;51.652;4.864;2023-02-28T07:12:19;3.10;;;0.80;;
71196;SDS011;58918;51.652;4.864;2023-02-28T07:14:47;2.35;;;0.70;;
71196;SDS011;58918;51.652;4.864;2023-02-28T07:17:14;2.42;;;0.90;;
71196;SDS011;58918;51.652;4.864;2023-02-28T07:19:41;2.95;;;0.70;;
71196;SDS011;58918;51.652;4.864;2023-02-28T07:22:08;2.30;;;0.82;;
71196;SDS011;58918;51.652;4.864;2023-02-28T07:24:35;2.97;;;1.08;;
71196;SDS011;58918;51.652;4.864;2023-02-28T07:27:03;4.00;;;1.05;;
71196;SDS011;58918;51.652;4.864;2023-02-28T07:29:30;3.50;;;1.00;;
71196;SDS011;58918;51.652;4.864;2023-02-28T07:31:57;3.10;;;0.90;;
71196;SDS011;58918;51.652;4.864;2023-02-28T07:34:25;3.17;;;1.10;;
71196;SDS011;58918;51.652;4.864;2023-02-28T07:36:52;2.53;;;0.90;;
71196;SDS011;58918;51.652;4.864;2023-02-28T07:39:20;2.90;;;0.90;;
71196;SDS011;58918;51.652;4.864;2023-02-28T07:41:48;2.50;;;0.80;;
71196;SDS011;58918;51.652;4.864;2023-02-28T07:44:15;3.28;;;0.80;;
71196;SDS011;58918;51.652;4.864;2023-02-28T07:46:42;2.50;;;0.80;;
71196;SDS011;58918;51.652;4.864;2023-02-28T07:49:09;2.75;;;0.73;;
71196;SDS011;58918;51.652;4.864;2023-02-28T07:51:36;2.90;;;0.82;;
71196;SDS011;58918;51.652;4.864;2023-02-28T07:54:04;2.92;;;0.82;;
71196;SDS011;58918;51.652;4.864;2023-02-28T07:56:31;2.50;;;0.70;;
71196;SDS011;58918;51.652;4.864;2023-02-28T07:58:58;2.20;;;0.80;;
71196;SDS011;58918;51.652;4.864;2023-02-28T08:01:26;2.53;;;0.80;;
71196;SDS011;58918;51.652;4.864;2023-02-28T08:03:53;2.58;;;0.75;;
71196;SDS011;58918;51.652;4.864;2023-02-28T08:06:24;2.60;;;0.90;;
71196;SDS011;58918;51.652;4.864;2023-02-28T08:08:52;2.58;;;0.70;;
71196;SDS011;58918;51.652;4.864;2023-02-28T08:11:20;1.98;;;0.60;;
71196;SDS011;58918;51.652;4.864;2023-02-28T08:13:47;3.17;;;0.70;;
71196;SDS011;58918;51.652;4.864;2023-02-28T08:16:14;2.78;;;1.08;;
71196;SDS011;58918;51.652;4.864;2023-02-28T08:18:44;2.95;;;0.77;;
71196;SDS011;58918;51.652;4.864;2023-02-28T08:21:11;3.72;;;0.93;;
71196;SDS011;58918;51.652;4.864;2023-02-28T08:23:38;3.28;;;0.85;;
71196;SDS011;58918;51.652;4.864;2023-02-28T08:26:05;1.85;;;0.70;;
71196;SDS011;58918;51.652;4.864;2023-02-28T08:28:33;2.22;;;0.77;;
71196;SDS011;58918;51.652;4.864;2023-02-28T08:31:00;2.75;;;0.85;;
71196;SDS011;58918;51.652;4.864;2023-02-28T08:33:27;3.13;;;0.85;;
71196;SDS011;58918;51.652;4.864;2023-02-28T08:35:55;2.47;;;0.70;;
71196;SDS011;58918;51.652;4.864;2023-02-28T08:38:23;2.75;;;0.90;;
71196;SDS011;58918;51.652;4.864;2023-02-28T08:40:56;2.58;;;0.80;;
71196;SDS011;58918;51.652;4.864;2023-02-28T08:43:24;1.95;;;0.60;;
71196;SDS011;58918;51.652;4.864;2023-02-28T08:45:55;2.95;;;0.80;;
71196;SDS011;58918;51.652;4.864;2023-02-28T08:48:29;3.58;;;0.95;;
71196;SDS011;58918;51.652;4.864;2023-02-28T08:50:58;1.60;;;0.50;;
71196;SDS011;58918;51.652;4.864;2023-02-28T08:53:33;3.33;;;0.90;;
71196;SDS011;58918;51.652;4.864;2023-02-28T08:56:01;2.15;;;0.63;;
71196;SDS011;58918;51.652;4.864;2023-02-28T08:58:29;2.20;;;0.60;;
71196;SDS011;58918;51.652;4.864;2023-02-28T09:00:56;2.63;;;0.80;;
71196;SDS011;58918;51.652;4.864;2023-02-28T09:03:23;2.67;;;0.80;;
71196;SDS011;58918;51.652;4.864;2023-02-28T09:05:54;1.90;;;0.60;;
71196;SDS011;58918;51.652;4.864;2023-02-28T09:08:23;3.65;;;0.93;;
71196;SDS011;58918;51.652;4.864;2023-02-28T09:10:51;2.10;;;0.70;;
71196;SDS011;58918;51.652;4.864;2023-02-28T09:13:18;2.15;;;0.57;;
71196;SDS011;58918;51.652;4.864;2023-02-28T09:15:45;2.72;;;0.63;;
71196;SDS011;58918;51.652;4.864;2023-02-28T09:18:12;2.50;;;0.63;;
71196;SDS011;58918;51.652;4.864;2023-02-28T09:20:40;2.10;;;0.65;;
71196;SDS011;58918;51.652;4.864;2023-02-28T09:23:08;2.15;;;0.60;;
71196;SDS011;58918;51.652;4.864;2023-02-28T09:25:36;2.35;;;0.70;;
71196;SDS011;58918;51.652;4.864;2023-02-28T09:28:03;2.50;;;0.80;;
71196;SDS011;58918;51.652;4.864;2023-02-28T09:30:30;2.75;;;0.80;;
71196;SDS011;58918;51.652;4.864;2023-02-28T09:32:58;2.33;;;0.80;;
71196;SDS011;58918;51.652;4.864;2023-02-28T09:35:25;2.78;;;0.88;;
71196;SDS011;58918;51.652;4.864;2023-02-28T09:37:54;3.17;;;0.90;;
71196;SDS011;58918;51.652;4.864;2023-02-28T09:42:49;1.50;;;0.60;;
71196;SDS011;58918;51.652;4.864;2023-02-28T09:47:59;2.50;;;0.80;;
71196;SDS011;58918;51.652;4.864;2023-02-28T09:50:34;1.92;;;0.70;;
71196;SDS011;58918;51.652;4.864;2023-02-28T09:53:03;1.80;;;0.70;;
71196;SDS011;58918;51.652;4.864;2023-02-28T09:55:33;2.28;;;0.60;;
71196;SDS011;58918;51.652;4.864;2023-02-28T10:06:18;1.80;;;0.63;;
71196;SDS011;58918;51.652;4.864;2023-02-28T10:11:16;1.77;;;0.60;;
71196;SDS011;58918;51.652;4.864;2023-02-28T10:18:54;1.23;;;0.50;;
71196;SDS011;58918;51.652;4.864;2023-02-28T10:21:26;1.60;;;0.60;;
71196;SDS011;58918;51.652;4.864;2023-02-28T10:29:22;1.70;;;0.50;;
71196;SDS011;58918;51.652;4.864;2023-02-28T10:31:49;1.70;;;0.50;;
71196;SDS011;58918;51.652;4.864;2023-02-28T10:34:16;1.92;;;0.77;;
71196;SDS011;58918;51.652;4.864;2023-02-28T10:36:43;2.17;;;0.63;;
71196;SDS011;58918;51.652;4.864;2023-02-28T10:41:57;1.42;;;0.50;;
71196;SDS011;58918;51.652;4.864;2023-02-28T10:44:24;1.23;;;0.50;;
71196;SDS011;58918;51.652;4.864;2023-02-28T10:46:51;3.30;;;0.70;;
71196;SDS011;58918;51.652;4.864;2023-02-28T10:49:23;1.75;;;0.60;;
71196;SDS011;58918;51.652;4.864;2023-02-28T10:51:54;2.45;;;0.52;;
71196;SDS011;58918;51.652;4.864;2023-02-28T10:54:30;1.88;;;0.50;;
71196;SDS011;58918;51.652;4.864;2023-02-28T10:59:29;1.35;;;0.43;;
71196;SDS011;58918;51.652;4.864;2023-02-28T11:01:56;3.22;;;0.60;;
71196;SDS011;58918;51.652;4.864;2023-02-28T11:07:03;1.23;;;0.40;;
71196;SDS011;58918;51.652;4.864;2023-02-28T11:11:58;2.75;;;0.60;;
71196;SDS011;58918;51.652;4.864;2023-02-28T11:14:26;1.80;;;0.50;;
71196;SDS011;58918;51.652;4.864;2023-02-28T11:16:54;1.40;;;0.50;;
71196;SDS011;58918;51.652;4.864;2023-02-28T11:19:27;2.22;;;0.60;;
71196;SDS011;58918;51.652;4.864;2023-02-28T11:21:56;2.17;;;0.50;;
71196;SDS011;58918;51.652;4.864;2023-02-28T11:24:28;1.42;;;0.50;;
71196;SDS011;58918;51.652;4.864;2023-02-28T11:26:57;1.77;;;0.50;;
71196;SDS011;58918;51.652;4.864;2023-02-28T11:29:27;1.98;;;0.68;;
71196;SDS011;58918;51.652;4.864;2023-02-28T11:32:02;1.45;;;0.50;;
71196;SDS011;58918;51.652;4.864;2023-02-28T11:34:30;2.95;;;0.70;;
71196;SDS011;58918;51.652;4.864;2023-02-28T11:36:58;0.90;;;0.40;;
71196;SDS011;58918;51.652;4.864;2023-02-28T11:39:26;1.75;;;0.60;;
71196;SDS011;58918;51.652;4.864;2023-02-28T11:52:35;2.28;;;0.40;;
71196;SDS011;58918;51.652;4.864;2023-02-28T11:55:17;2.78;;;0.50;;
71196;SDS011;58918;51.652;4.864;2023-02-28T11:57:56;1.25;;;0.50;;
71196;SDS011;58918;51.652;4.864;2023-02-28T12:03:17;0.77;;;0.40;;
71196;SDS011;58918;51.652;4.864;2023-02-28T12:06:01;1.35;;;0.50;;
71196;SDS011;58918;51.652;4.864;2023-02-28T12:16:25;2.20;;;0.55;;
71196;SDS011;58918;51.652;4.864;2023-02-28T12:18:59;1.30;;;0.50;;
71196;SDS011;58918;51.652;4.864;2023-02-28T12:21:31;1.73;;;0.60;;
71196;SDS011;58918;51.652;4.864;2023-02-28T12:24:24;1.52;;;0.50;;
71196;SDS011;58918;51.652;4.864;2023-02-28T12:26:54;1.45;;;0.40;;
71196;SDS011;58918;51.652;4.864;2023-02-28T12:29:28;2.03;;;0.63;;
71196;SDS011;58918;51.652;4.864;2023-02-28T12:34:28;1.50;;;0.52;;
71196;SDS011;58918;51.652;4.864;2023-02-28T12:36:58;1.70;;;0.50;;
71196;SDS011;58918;51.652;4.864;2023-02-28T12:39:35;0.93;;;0.40;;
71196;SDS011;58918;51.652;4.864;2023-02-28T12:42:36;1.13;;;0.50;;
71196;SDS011;58918;51.652;4.864;2023-02-28T12:45:05;1.83;;;0.40;;
71196;SDS011;58918;51.652;4.864;2023-02-28T12:47:36;1.65;;;0.60;;
71196;SDS011;58918;51.652;4.864;2023-02-28T12:50:06;1.52;;;0.60;;
71196;SDS011;58918;51.652;4.864;2023-02-28T12:55:06;1.35;;;0.50;;
71196;SDS011;58918;51.652;4.864;2023-02-28T13:00:04;1.67;;;0.50;;
71196;SDS011;58918;51.652;4.864;2023-02-28T13:05:45;1.30;;;0.50;;
71196;SDS011;58918;51.652;4.864;2023-02-28T13:08:20;1.77;;;0.60;;
71196;SDS011;58918;51.652;4.864;2023-02-28T13:10:49;1.67;;;0.57;;
71196;SDS011;58918;51.652;4.864;2023-02-28T13:13:21;1.23;;;0.45;;
71196;SDS011;58918;51.652;4.864;2023-02-28T13:18:47;0.75;;;0.40;;
71196;SDS011;58918;51.652;4.864;2023-02-28T13:26:07;1.88;;;0.57;;
71196;SDS011;58918;51.652;4.864;2023-02-28T13:31:20;1.60;;;0.52;;
71196;SDS011;58918;51.652;4.864;2023-02-28T13:36:26;1.13;;;0.43;;
71196;SDS011;58918;51.652;4.864;2023-02-28T13:41:46;1.73;;;0.50;;
71196;SDS011;58918;51.652;4.864;2023-02-28T13:44:20;1.85;;;0.52;;
71196;SDS011;58918;51.652;4.864;2023-02-28T13:49:18;0.82;;;0.32;;
71196;SDS011;58918;51.652;4.864;2023-02-28T13:51:49;1.38;;;0.40;;
71196;SDS011;58918;51.652;4.864;2023-02-28T13:54:24;3.10;;;0.50;;
71196;SDS011;58918;51.652;4.864;2023-02-28T14:07:28;1.63;;;0.47;;
71196;SDS011;58918;51.652;4.864;2023-02-28T14:10:03;2.08;;;0.50;;
71196;SDS011;58918;51.652;4.864;2023-02-28T14:18:01;1.67;;;0.50;;
71196;SDS011;58918;51.652;4.864;2023-02-28T14:20:31;1.17;;;0.40;;
71196;SDS011;58918;51.652;4.864;2023-02-28T14:23:02;1.58;;;0.63;;
71196;SDS011;58918;51.652;4.864;2023-02-28T14:30:52;1.60;;;0.50;;
71196;SDS011;58918;51.652;4.864;2023-02-28T14:38:23;1.65;;;0.43;;
71196;SDS011;58918;51.652;4.864;2023-02-28T14:40:51;2.00;;;0.60;;
71196;SDS011;58918;51.652;4.864;2023-02-28T14:43:20;2.20;;;0.65;;
71196;SDS011;58918;51.652;4.864;2023-02-28T14:48:15;1.55;;;0.50;;
71196;SDS011;58918;51.652;4.864;2023-02-28T14:50:48;1.33;;;0.50;;
71196;SDS011;58918;51.652;4.864;2023-02-28T14:53:17;1.13;;;0.60;;
71196;SDS011;58918;51.652;4.864;2023-02-28T14:55:46;1.08;;;0.40;;
71196;SDS011;58918;51.652;4.864;2023-02-28T14:58:23;0.85;;;0.40;;
71196;SDS011;58918;51.652;4.864;2023-02-28T15:00:51;1.85;;;0.50;;
71196;SDS011;58918;51.652;4.864;2023-02-28T15:05:59;1.35;;;0.40;;
71196;SDS011;58918;51.652;4.864;2023-02-28T15:08:28;0.85;;;0.40;;
71196;SDS011;58918;51.652;4.864;2023-02-28T15:10:58;1.52;;;0.40;;
71196;SDS011;58918;51.652;4.864;2023-02-28T15:13:32;1.13;;;0.32;;
71196;SDS011;58918;51.652;4.864;2023-02-28T15:16:03;2.05;;;0.52;;
71196;SDS011;58918;51.652;4.864;2023-02-28T15:19:05;1.73;;;0.70;;
71196;SDS011;58918;51.652;4.864;2023-02-28T15:24:03;3.20;;;0.60;;
71196;SDS011;58918;51.652;4.864;2023-02-28T15:26:42;2.70;;;0.60;;
71196;SDS011;58918;51.652;4.864;2023-02-28T15:29:14;1.73;;;0.55;;
71196;SDS011;58918;51.652;4.864;2023-02-28T15:31:46;1.92;;;0.55;;
71196;SDS011;58918;51.652;4.864;2023-02-28T15:34:33;2.60;;;0.70;;
71196;SDS011;58918;51.652;4.864;2023-02-28T15:39:58;3.25;;;0.90;;
71196;SDS011;58918;51.652;4.864;2023-02-28T15:42:31;3.65;;;1.02;;
71196;SDS011;58918;51.652;4.864;2023-02-28T15:44:58;4.20;;;1.13;;
71196;SDS011;58918;51.652;4.864;2023-02-28T15:47:26;4.32;;;1.00;;
71196;SDS011;58918;51.652;4.864;2023-02-28T15:49:56;4.53;;;0.88;;
71196;SDS011;58918;51.652;4.864;2023-02-28T15:52:28;5.85;;;1.10;;
71196;SDS011;58918;51.652;4.864;2023-02-28T15:54:57;2.60;;;0.80;;
71196;SDS011;58918;51.652;4.864;2023-02-28T15:57:26;2.47;;;0.82;;
71196;SDS011;58918;51.652;4.864;2023-02-28T15:59:55;2.80;;;0.90;;
71196;SDS011;58918;51.652;4.864;2023-02-28T16:02:32;3.42;;;1.35;;
71196;SDS011;58918;51.652;4.864;2023-02-28T16:07:36;2.50;;;0.98;;
71196;SDS011;58918;51.652;4.864;2023-02-28T16:10:04;2.40;;;0.80;;
71196;SDS011;58918;51.652;4.864;2023-02-28T16:12:33;2.78;;;0.80;;
71196;SDS011;58918;51.652;4.864;2023-02-28T16:15:08;2.58;;;0.80;;
71196;SDS011;58918;51.652;4.864;2023-02-28T16:17:37;5.20;;;1.20;;
71196;SDS011;58918;51.652;4.864;2023-02-28T16:20:11;8.48;;;0.98;;
71196;SDS011;58918;51.652;4.864;2023-02-28T16:22:39;3.63;;;1.10;;
71196;SDS011;58918;51.652;4.864;2023-02-28T16:25:11;2.42;;;0.90;;
71196;SDS011;58918;51.652;4.864;2023-02-28T16:27:38;4.40;;;1.15;;
71196;SDS011;58918;51.652;4.864;2023-02-28T16:30:06;3.50;;;1.00;;
71196;SDS011;58918;51.652;4.864;2023-02-28T16:32:34;3.63;;;0.70;;
71196;SDS011;58918;51.652;4.864;2023-02-28T16:35:02;4.47;;;1.60;;
71196;SDS011;58918;51.652;4.864;2023-02-28T16:37:30;5.38;;;1.00;;
71196;SDS011;58918;51.652;4.864;2023-02-28T16:39:57;4.20;;;0.80;;
71196;SDS011;58918;51.652;4.864;2023-02-28T16:42:25;1.92;;;0.80;;
71196;SDS011;58918;51.652;4.864;2023-02-28T16:44:53;3.88;;;0.93;;
71196;SDS011;58918;51.652;4.864;2023-02-28T16:47:21;4.90;;;0.90;;
71196;SDS011;58918;51.652;4.864;2023-02-28T16:49:52;3.13;;;1.08;;
71196;SDS011;58918;51.652;4.864;2023-02-28T16:52:19;2.95;;;0.80;;
71196;SDS011;58918;51.652;4.864;2023-02-28T16:54:47;2.95;;;0.77;;
71196;SDS011;58918;51.652;4.864;2023-02-28T16:57:18;3.85;;;0.80;;
71196;SDS011;58918;51.652;4.864;2023-02-28T16:59:48;3.35;;;0.88;;
71196;SDS011;58918;51.652;4.864;2023-02-28T17:02:18;2.20;;;0.70;;
71196;SDS011;58918;51.652;4.864;2023-02-28T17:04:45;2.15;;;0.73;;
71196;SDS011;58918;51.652;4.864;2023-02-28T17:07:13;3.95;;;0.93;;
71196;SDS011;58918;51.652;4.864;2023-02-28T17:09:42;2.70;;;0.70;;
71196;SDS011;58918;51.652;4.864;2023-02-28T17:12:11;2.33;;;0.60;;
71196;SDS011;58918;51.652;4.864;2023-02-28T17:14:39;3.72;;;0.80;;
71196;SDS011;58918;51.652;4.864;2023-02-28T17:17:06;3.33;;;0.90;;
71196;SDS011;58918;51.652;4.864;2023-02-28T17:19:33;2.08;;;0.70;;
71196;SDS011;58918;51.652;4.864;2023-02-28T17:22:02;4.70;;;0.90;;
71196;SDS011;58918;51.652;4.864;2023-02-28T17:24:29;1.85;;;0.60;;
71196;SDS011;58918;51.652;4.864;2023-02-28T17:26:56;8.35;;;0.70;;
71196;SDS011;58918;51.652;4.864;2023-02-28T17:29:24;2.40;;;0.60;;
71196;SDS011;58918;51.652;4.864;2023-02-28T17:31:51;3.53;;;0.80;;
71196;SDS011;58918;51.652;4.864;2023-02-28T17:34:19;2.80;;;0.90;;
71196;SDS011;58918;51.652;4.864;2023-02-28T17:36:46;2.00;;;0.55;;